Time;durP1;ratioP1;P1;durP2;ratioP2;P2;SDS_P1;SDS_P2;PMS_P1;PMS_P2;Temp;Humidity;BMP_temperature;BMP_pressure;BME280_temperature;BME280_humidity;BME280_pressure;Samples;Min_cycle;Max_cycle;Signal;HPM_P1;HPM_P2
2022/02/18 00:00:17;;;;;;;49.00;7.50;;;8.80;99.90;;;;;;5052587;28;20482;-55
2022/02/18 00:02:43;;;;;;;48.08;6.80;;;8.70;99.90;;;;;;5052527;28;20021;-55
2022/02/18 00:05:09;;;;;;;47.88;7.65;;;8.80;99.90;;;;;;5052727;28;20473;-56
2022/02/18 00:07:34;;;;;;;43.15;7.30;;;8.80;99.90;;;;;;5052795;28;20464;-55
2022/02/18 00:10:00;;;;;;;45.60;6.88;;;8.80;99.90;;;;;;5052919;28;20096;-56
2022/02/18 00:12:26;;;;;;;46.05;7.65;;;8.70;99.90;;;;;;5052262;28;20086;-56
2022/02/18 00:14:52;;;;;;;36.67;6.40;;;8.60;99.90;;;;;;5052585;28;20032;-55
2022/02/18 00:17:17;;;;;;;49.30;7.60;;;8.70;99.90;;;;;;5052477;28;20028;-55
2022/02/18 00:19:43;;;;;;;41.22;6.75;;;8.60;99.90;;;;;;5052755;28;20389;-56
2022/02/18 00:22:09;;;;;;;49.00;7.78;;;8.70;99.90;;;;;;5052737;28;20036;-55
2022/02/18 00:24:34;;;;;;;56.53;7.38;;;8.60;99.90;;;;;;5052772;28;20501;-56
2022/02/18 00:27:00;;;;;;;48.03;6.85;;;8.60;99.90;;;;;;5052472;28;20029;-56
2022/02/18 00:29:25;;;;;;;45.85;8.13;;;8.60;99.90;;;;;;5051709;28;20052;-56
2022/02/18 00:31:51;;;;;;;45.58;6.68;;;8.60;99.90;;;;;;5053023;28;20493;-55
2022/02/18 00:34:17;;;;;;;38.45;6.15;;;8.60;99.90;;;;;;5052873;28;20084;-55
2022/02/18 00:36:42;;;;;;;51.92;8.10;;;8.70;99.90;;;;;;5051791;28;20025;-56
2022/02/18 00:39:09;;;;;;;42.85;7.78;;;8.60;99.90;;;;;;5051759;28;20036;-56
2022/02/18 00:41:34;;;;;;;45.17;7.32;;;8.60;99.90;;;;;;5052043;28;20052;-55
2022/02/18 00:44:00;;;;;;;57.38;7.90;;;8.60;99.90;;;;;;5051679;28;20103;-56
2022/02/18 00:46:26;;;;;;;42.50;8.43;;;8.60;99.90;;;;;;5051786;28;20385;-55
2022/02/18 00:48:51;;;;;;;48.35;7.63;;;8.60;99.90;;;;;;5051485;28;20028;-55
2022/02/18 00:51:17;;;;;;;46.58;8.30;;;8.60;99.90;;;;;;5052311;28;20025;-55
2022/02/18 00:53:43;;;;;;;43.20;8.00;;;8.60;99.90;;;;;;5053111;28;20033;-56
2022/02/18 00:56:09;;;;;;;49.97;8.05;;;8.60;99.90;;;;;;5051776;28;20104;-55
2022/02/18 00:58:34;;;;;;;39.50;6.90;;;8.60;99.90;;;;;;5051426;28;20112;-56
2022/02/18 01:01:00;;;;;;;38.83;6.88;;;8.60;99.90;;;;;;5051480;28;20025;-56
2022/02/18 01:03:25;;;;;;;48.95;7.20;;;8.70;99.90;;;;;;5052119;28;20045;-56
2022/02/18 01:05:51;;;;;;;48.58;7.47;;;8.60;99.90;;;;;;5052300;28;20024;-55
2022/02/18 01:08:18;;;;;;;54.63;7.57;;;8.60;99.90;;;;;;5051282;28;20025;-56
2022/02/18 01:10:44;;;;;;;44.53;7.53;;;8.70;99.90;;;;;;5051599;28;20025;-56
2022/02/18 01:13:09;;;;;;;51.55;7.70;;;8.70;99.90;;;;;;5051500;28;20025;-55
2022/02/18 01:15:35;;;;;;;45.58;7.13;;;8.70;99.90;;;;;;5051105;28;20029;-56
2022/02/18 01:18:00;;;;;;;43.38;6.72;;;8.60;99.90;;;;;;5051235;28;20032;-56
2022/02/18 01:20:26;;;;;;;50.22;7.10;;;8.60;99.90;;;;;;5052107;28;20025;-56
2022/02/18 01:22:52;;;;;;;40.88;6.47;;;8.60;99.90;;;;;;5050902;28;20023;-56
2022/02/18 01:25:18;;;;;;;48.83;7.80;;;8.60;99.90;;;;;;5056349;28;20218;-56
2022/02/18 01:27:43;;;;;;;39.83;5.88;;;8.70;99.90;;;;;;5055461;28;20059;-56
2022/02/18 01:30:10;;;;;;;37.17;5.90;;;8.60;99.90;;;;;;5054932;28;20091;-56
2022/02/18 01:32:36;;;;;;;39.08;5.97;;;8.60;99.90;;;;;;5055460;28;20031;-56
2022/02/18 01:35:03;;;;;;;37.90;5.82;;;8.60;99.90;;;;;;5055903;28;20017;-55
2022/02/18 01:37:29;;;;;;;48.83;6.63;;;8.60;99.90;;;;;;5055341;28;20043;-56
2022/02/18 01:39:54;;;;;;;25.95;4.90;;;8.50;99.90;;;;;;5055214;28;20095;-56
2022/02/18 01:42:20;;;;;;;43.72;7.57;;;8.50;99.90;;;;;;5055636;28;20104;-56
2022/02/18 01:44:48;;;;;;;36.92;5.65;;;8.40;99.90;;;;;;5055695;28;20028;-56
2022/02/18 01:47:16;;;;;;;55.20;7.13;;;8.50;99.90;;;;;;5055138;28;20021;-56
2022/02/18 01:49:45;;;;;;;35.88;5.40;;;8.40;99.90;;;;;;5054540;28;20071;-56
2022/02/18 01:52:12;;;;;;;36.35;5.47;;;8.40;99.90;;;;;;5054904;28;20029;-55
2022/02/18 01:54:38;;;;;;;35.30;5.03;;;8.40;99.90;;;;;;5054049;28;20064;-55
2022/02/18 01:57:04;;;;;;;37.55;6.00;;;8.50;99.90;;;;;;5054831;28;20021;-56
2022/02/18 01:59:30;;;;;;;37.25;4.75;;;8.50;99.90;;;;;;5054797;28;20152;-55
2022/02/18 02:01:59;;;;;;;40.60;6.10;;;8.50;99.90;;;;;;5054722;28;20029;-56
2022/02/18 02:04:25;;;;;;;39.90;5.47;;;8.40;99.90;;;;;;5054795;28;20488;-56
2022/02/18 02:06:52;;;;;;;36.03;5.57;;;8.40;99.90;;;;;;5054888;28;20343;-56
2022/02/18 02:09:18;;;;;;;38.17;5.50;;;8.40;99.90;;;;;;5054695;28;20083;-56
2022/02/18 02:11:44;;;;;;;38.38;5.75;;;8.40;99.90;;;;;;5053553;28;20416;-55
2022/02/18 02:14:10;;;;;;;33.33;4.47;;;8.40;99.90;;;;;;5054557;28;20051;-55
2022/02/18 02:16:36;;;;;;;36.03;5.35;;;8.40;99.90;;;;;;5054478;28;20590;-56
2022/02/18 02:19:01;;;;;;;39.15;5.28;;;8.40;99.90;;;;;;5054275;28;20470;-56
2022/02/18 02:21:27;;;;;;;32.85;5.05;;;8.40;99.90;;;;;;5054541;28;20433;-56
2022/02/18 02:23:54;;;;;;;29.17;4.45;;;8.40;99.90;;;;;;5054319;28;20017;-56
2022/02/18 02:26:20;;;;;;;42.22;5.45;;;8.40;99.90;;;;;;5054305;28;20017;-55
2022/02/18 02:28:46;;;;;;;34.13;5.00;;;8.40;99.90;;;;;;5054133;28;20036;-55
2022/02/18 02:31:11;;;;;;;31.42;5.47;;;8.40;99.90;;;;;;5054691;28;20033;-57
2022/02/18 02:33:37;;;;;;;33.05;5.10;;;8.30;99.90;;;;;;5054484;28;20033;-55
2022/02/18 02:36:03;;;;;;;30.10;5.25;;;8.40;99.90;;;;;;5054425;28;20039;-56
2022/02/18 02:38:28;;;;;;;34.53;4.90;;;8.40;99.90;;;;;;5054422;28;20070;-56
2022/02/18 02:40:54;;;;;;;32.60;5.50;;;8.40;99.90;;;;;;5053326;28;20440;-56
2022/02/18 02:43:20;;;;;;;29.88;5.53;;;8.50;99.90;;;;;;5054257;28;20027;-56
2022/02/18 02:45:45;;;;;;;31.83;5.25;;;8.50;99.90;;;;;;5054321;28;20025;-56
2022/02/18 02:48:11;;;;;;;31.63;4.85;;;8.50;99.90;;;;;;5054087;28;20033;-56
2022/02/18 02:50:37;;;;;;;25.65;4.72;;;8.40;99.90;;;;;;5053993;28;20029;-56
2022/02/18 02:53:03;;;;;;;30.40;5.05;;;8.40;99.90;;;;;;5052899;28;20036;-55
2022/02/18 02:55:28;;;;;;;34.38;5.10;;;8.40;99.90;;;;;;5054134;28;20029;-55
2022/02/18 02:57:54;;;;;;;34.67;5.43;;;8.40;99.90;;;;;;5053723;28;20498;-55
2022/02/18 03:00:20;;;;;;;31.83;4.68;;;8.40;99.90;;;;;;5053399;28;20083;-55
2022/02/18 03:02:46;;;;;;;35.45;5.38;;;8.50;99.90;;;;;;5054193;28;20025;-56
2022/02/18 03:05:13;;;;;;;32.38;4.88;;;8.50;99.90;;;;;;5053292;28;20116;-56
2022/02/18 03:07:39;;;;;;;31.73;4.65;;;8.50;99.90;;;;;;5053920;28;20280;-56
2022/02/18 03:10:06;;;;;;;37.10;5.43;;;8.50;99.90;;;;;;5054348;28;20029;-55
2022/02/18 03:12:32;;;;;;;29.70;4.65;;;8.50;99.90;;;;;;5053469;28;20032;-56
2022/02/18 03:14:58;;;;;;;32.08;5.63;;;8.60;99.90;;;;;;5052068;28;20116;-55
2022/02/18 03:17:24;;;;;;;31.90;5.45;;;8.60;99.90;;;;;;5053167;28;20112;-56
2022/02/18 03:19:50;;;;;;;32.78;5.25;;;8.70;99.90;;;;;;5053011;28;20364;-56
2022/02/18 03:22:16;;;;;;;23.30;4.05;;;8.70;99.90;;;;;;5053031;28;20024;-56
2022/02/18 03:24:42;;;;;;;23.80;4.28;;;8.70;99.90;;;;;;5053202;28;20438;-56
2022/02/18 03:27:08;;;;;;;29.80;4.43;;;8.60;99.90;;;;;;5053131;28;20033;-56
2022/02/18 03:29:34;;;;;;;26.58;4.95;;;8.60;99.90;;;;;;5052832;28;20501;-56
2022/02/18 03:32:00;;;;;;;31.52;4.65;;;8.60;99.90;;;;;;5053050;28;20033;-56
2022/02/18 03:34:26;;;;;;;26.02;4.30;;;8.60;99.90;;;;;;5053350;28;20028;-56
2022/02/18 03:36:51;;;;;;;29.52;4.22;;;8.50;99.90;;;;;;5053062;28;20021;-56
2022/02/18 03:39:17;;;;;;;31.52;5.03;;;8.60;99.90;;;;;;5053709;28;20040;-56
2022/02/18 03:41:43;;;;;;;30.75;4.88;;;8.60;99.90;;;;;;5053163;28;20057;-56
2022/02/18 03:44:09;;;;;;;25.65;4.80;;;8.60;99.90;;;;;;5053212;28;20048;-55
2022/02/18 03:46:35;;;;;;;22.27;4.90;;;8.60;99.90;;;;;;5052824;28;20474;-56
2022/02/18 03:49:01;;;;;;;32.78;5.05;;;8.60;99.90;;;;;;5052940;28;20079;-56
2022/02/18 03:51:26;;;;;;;30.13;6.97;;;8.60;99.90;;;;;;5053328;28;20159;-56
2022/02/18 03:53:52;;;;;;;38.88;8.07;;;8.60;99.90;;;;;;5051899;28;20028;-56
2022/02/18 03:56:18;;;;;;;35.15;8.07;;;8.60;99.90;;;;;;5052322;28;20432;-56
2022/02/18 03:58:44;;;;;;;35.30;9.13;;;8.70;99.90;;;;;;5052256;28;20039;-56
2022/02/18 04:01:10;;;;;;;40.75;11.73;;;8.70;99.90;;;;;;5052367;28;20474;-55
2022/02/18 04:03:35;;;;;;;39.08;12.50;;;8.60;99.90;;;;;;5052719;28;20405;-55
2022/02/18 04:06:01;;;;;;;42.03;14.30;;;8.70;99.90;;;;;;5052749;28;20079;-55
2022/02/18 04:08:27;;;;;;;36.95;11.65;;;8.70;99.90;;;;;;5052796;28;20025;-55
2022/02/18 04:10:52;;;;;;;29.60;8.85;;;8.80;99.90;;;;;;5052788;28;20029;-55
2022/02/18 04:13:18;;;;;;;40.95;10.48;;;8.90;99.90;;;;;;5052515;28;20062;-56
2022/02/18 04:15:44;;;;;;;44.03;11.98;;;8.90;99.90;;;;;;5052276;28;20028;-56
2022/02/18 04:18:09;;;;;;;39.13;11.00;;;9.00;99.90;;;;;;5050857;28;20025;-56
2022/02/18 04:20:35;;;;;;;35.70;9.98;;;8.90;99.90;;;;;;5052332;28;20523;-55
2022/02/18 04:23:01;;;;;;;38.58;9.20;;;9.00;99.90;;;;;;5052884;28;20024;-56
2022/02/18 04:25:26;;;;;;;38.15;9.65;;;9.00;99.90;;;;;;5052650;28;20014;-56
2022/02/18 04:27:57;;;;;;;32.38;9.90;;;9.00;99.90;;;;;;5051869;28;20127;-55
2022/02/18 04:30:23;;;;;;;41.92;10.00;;;9.00;99.90;;;;;;5050453;28;20525;-58
2022/02/18 04:32:49;;;;;;;30.10;7.88;;;9.00;99.90;;;;;;5051408;28;20055;-56
2022/02/18 04:35:15;;;;;;;30.17;7.25;;;9.00;99.90;;;;;;5051572;28;20321;-56
2022/02/18 04:37:41;;;;;;;30.83;6.45;;;9.00;99.90;;;;;;5052045;28;20025;-56
2022/02/18 04:40:07;;;;;;;33.53;7.13;;;8.90;99.90;;;;;;5052157;28;20032;-56
2022/02/18 04:42:33;;;;;;;27.95;4.80;;;8.80;99.90;;;;;;5052092;28;20033;-56
2022/02/18 04:44:59;;;;;;;31.30;4.85;;;8.70;99.90;;;;;;5052025;28;20029;-56
2022/02/18 04:47:24;;;;;;;32.50;5.53;;;8.60;99.90;;;;;;5051469;28;20363;-56
2022/02/18 04:49:50;;;;;;;31.25;5.18;;;8.50;99.90;;;;;;5052143;28;20090;-56
2022/02/18 04:52:15;;;;;;;34.13;4.93;;;8.40;99.90;;;;;;5051727;28;20475;-55
2022/02/18 04:54:42;;;;;;;39.83;5.28;;;8.40;99.90;;;;;;5051746;28;20029;-56
2022/02/18 04:57:08;;;;;;;34.25;5.22;;;8.30;99.90;;;;;;5051204;28;20547;-56
2022/02/18 04:59:34;;;;;;;43.72;6.80;;;8.30;99.90;;;;;;5050771;28;20029;-57
2022/02/18 05:01:59;;;;;;;41.25;6.07;;;8.30;99.90;;;;;;5051795;28;20092;-56
2022/02/18 05:04:25;;;;;;;31.45;5.13;;;8.30;99.90;;;;;;5051725;28;20100;-57
2022/02/18 05:06:51;;;;;;;38.70;6.18;;;8.30;99.90;;;;;;5051988;28;20021;-58
2022/02/18 05:09:16;;;;;;;34.03;5.47;;;8.30;99.90;;;;;;5051351;28;20029;-59
2022/02/18 05:11:42;;;;;;;46.90;6.68;;;8.30;99.90;;;;;;5051518;28;20029;-59
2022/02/18 05:14:08;;;;;;;44.15;6.47;;;8.30;99.90;;;;;;5051350;28;20108;-60
2022/02/18 05:16:33;;;;;;;32.45;5.32;;;8.30;99.90;;;;;;5051783;28;20100;-60
2022/02/18 05:18:59;;;;;;;34.05;5.68;;;8.20;99.90;;;;;;5051296;28;20031;-58
2022/02/18 05:21:25;;;;;;;37.72;6.15;;;8.20;99.90;;;;;;5049891;28;20067;-57
2022/02/18 05:23:51;;;;;;;44.05;6.32;;;8.20;99.90;;;;;;5051736;28;20017;-56
2022/02/18 05:26:17;;;;;;;37.58;6.20;;;8.30;99.90;;;;;;5050709;28;20432;-58
2022/02/18 05:28:43;;;;;;;42.45;6.50;;;8.30;99.90;;;;;;5051147;28;20055;-57
2022/02/18 05:31:08;;;;;;;41.15;7.18;;;8.30;99.90;;;;;;5051604;28;20096;-57
2022/02/18 05:33:34;;;;;;;39.30;6.53;;;8.30;99.90;;;;;;5051765;28;20092;-57
2022/02/18 05:36:00;;;;;;;33.92;5.00;;;8.40;99.90;;;;;;5051356;28;20029;-57
2022/02/18 05:38:26;;;;;;;37.20;6.85;;;8.40;99.90;;;;;;5051865;28;20501;-58
2022/02/18 05:40:52;;;;;;;39.65;6.53;;;8.40;99.90;;;;;;5050225;28;20075;-58
2022/02/18 05:43:17;;;;;;;37.10;6.70;;;8.50;99.90;;;;;;5051108;28;20025;-57
2022/02/18 05:45:43;;;;;;;35.67;6.18;;;8.50;99.90;;;;;;5051760;28;20017;-58
2022/02/18 05:48:09;;;;;;;22.55;5.10;;;8.50;99.90;;;;;;5052176;28;20044;-58
2022/02/18 05:50:34;;;;;;;27.10;4.72;;;8.60;99.90;;;;;;5051318;28;20036;-59
2022/02/18 05:53:00;;;;;;;24.35;5.07;;;8.70;99.90;;;;;;5050502;28;20385;-61
2022/02/18 05:55:26;;;;;;;21.52;5.93;;;8.70;99.90;;;;;;5050946;28;20512;-61
2022/02/18 05:57:51;;;;;;;26.73;4.93;;;8.70;99.90;;;;;;5049070;28;20062;-61
2022/02/18 06:00:17;;;;;;;21.92;4.72;;;8.80;99.90;;;;;;5050850;28;20483;-61
2022/02/18 06:02:43;;;;;;;22.42;4.88;;;8.80;99.90;;;;;;5050552;28;20086;-61
2022/02/18 06:05:10;;;;;;;21.73;4.78;;;8.80;99.90;;;;;;5050730;28;20382;-60
2022/02/18 06:07:36;;;;;;;24.13;4.97;;;8.90;99.90;;;;;;5049435;28;20112;-59
2022/02/18 06:10:03;;;;;;;24.85;4.78;;;8.90;99.90;;;;;;5051306;28;20028;-60
2022/02/18 06:12:28;;;;;;;21.75;4.70;;;9.00;99.90;;;;;;5053940;28;20040;-59
2022/02/18 06:14:54;;;;;;;15.48;3.75;;;9.10;99.90;;;;;;5054343;28;20140;-60
2022/02/18 06:17:20;;;;;;;15.75;4.35;;;9.10;99.90;;;;;;5054745;28;20386;-60
2022/02/18 06:19:46;;;;;;;17.45;4.38;;;9.20;99.90;;;;;;5055029;28;20025;-58
2022/02/18 06:22:12;;;;;;;12.15;3.33;;;9.20;99.90;;;;;;5054387;28;20100;-59
2022/02/18 06:24:38;;;;;;;19.17;4.43;;;9.30;99.90;;;;;;5054424;28;20367;-58
2022/02/18 06:27:05;;;;;;;19.70;5.05;;;9.30;99.90;;;;;;5054059;28;20107;-57
2022/02/18 06:29:30;;;;;;;18.17;4.18;;;9.40;99.90;;;;;;5052583;28;20045;-57
2022/02/18 06:31:57;;;;;;;12.65;3.55;;;9.40;99.90;;;;;;5054192;28;20017;-57
2022/02/18 06:34:23;;;;;;;12.82;3.58;;;9.50;99.90;;;;;;5054186;28;20524;-57
2022/02/18 06:36:51;;;;;;;16.67;3.95;;;9.50;99.90;;;;;;5053420;28;20075;-57
2022/02/18 06:39:18;;;;;;;13.60;3.20;;;9.60;99.90;;;;;;5052325;28;20371;-56
2022/02/18 06:41:48;;;;;;;13.30;3.67;;;9.70;99.90;;;;;;5053706;28;20024;-57
2022/02/18 06:44:14;;;;;;;12.05;3.15;;;9.80;99.90;;;;;;5048303;28;20017;-56
2022/02/18 06:46:40;;;;;;;14.13;3.38;;;9.90;99.90;;;;;;5051450;28;20029;-57
2022/02/18 06:49:06;;;;;;;11.82;3.20;;;10.00;99.90;;;;;;5053304;28;20047;-56
2022/02/18 06:51:32;;;;;;;13.32;3.80;;;10.00;99.90;;;;;;5053316;28;20536;-56
2022/02/18 06:53:57;;;;;;;10.80;2.20;;;10.10;99.90;;;;;;5054680;28;20036;-57
2022/02/18 06:56:23;;;;;;;8.77;2.78;;;10.20;99.90;;;;;;5050196;28;20478;-56
2022/02/18 06:58:49;;;;;;;2.55;1.35;;;10.30;99.90;;;;;;5049303;28;20310;-57
2022/02/18 07:01:14;;;;;;;10.48;2.90;;;10.40;99.90;;;;;;5050205;28;20022;-56
2022/02/18 07:03:40;;;;;;;8.18;2.85;;;10.40;99.90;;;;;;5050779;28;20025;-56
2022/02/18 07:06:06;;;;;;;11.68;2.72;;;10.40;99.90;;;;;;5052445;28;20544;-56
2022/02/18 07:08:32;;;;;;;13.38;3.28;;;10.40;99.90;;;;;;5052833;28;20044;-56
2022/02/18 07:10:58;;;;;;;7.60;2.67;;;10.40;99.90;;;;;;5053310;28;20039;-56
2022/02/18 07:13:24;;;;;;;11.95;3.40;;;10.50;99.90;;;;;;5043160;28;20356;-56
2022/02/18 07:15:50;;;;;;;10.13;2.95;;;10.50;99.90;;;;;;5047659;28;20375;-55
2022/02/18 07:18:16;;;;;;;10.20;3.58;;;10.50;99.90;;;;;;5046867;28;20442;-55
2022/02/18 07:20:43;;;;;;;7.82;2.72;;;10.60;99.90;;;;;;5047791;28;20107;-55
2022/02/18 07:23:09;;;;;;;8.13;2.80;;;10.60;99.90;;;;;;5044982;28;20025;-55
2022/02/18 07:25:35;;;;;;;10.43;3.10;;;10.60;99.90;;;;;;5047823;28;20029;-55
2022/02/18 07:28:01;;;;;;;6.82;3.00;;;10.70;99.90;;;;;;5049424;28;20052;-56
2022/02/18 07:30:27;;;;;;;8.35;2.42;;;10.70;99.90;;;;;;5046805;28;20540;-55
2022/02/18 07:32:56;;;;;;;7.28;2.60;;;10.70;99.90;;;;;;5047658;28;20093;-57
2022/02/18 07:35:23;;;;;;;10.35;3.08;;;10.80;99.90;;;;;;5040583;28;20025;-54
2022/02/18 07:37:50;;;;;;;8.65;2.90;;;10.80;99.90;;;;;;5045012;28;20029;-54
2022/02/18 07:40:16;;;;;;;6.93;2.40;;;10.80;99.90;;;;;;5047428;28;20040;-54
2022/02/18 07:42:43;;;;;;;6.78;2.42;;;10.80;99.90;;;;;;5051120;28;20025;-54
2022/02/18 07:45:10;;;;;;;8.23;2.45;;;10.90;99.90;;;;;;5049911;28;20033;-53
2022/02/18 07:47:36;;;;;;;3.50;1.63;;;10.90;99.90;;;;;;5050319;28;20025;-55
2022/02/18 07:50:04;;;;;;;2.90;1.80;;;11.00;99.90;;;;;;5048984;28;20086;-56
2022/02/18 07:52:30;;;;;;;7.25;2.30;;;11.00;99.90;;;;;;5046041;28;20024;-54
2022/02/18 07:54:56;;;;;;;4.10;1.88;;;11.00;99.90;;;;;;5044916;28;20021;-53
2022/02/18 07:57:25;;;;;;;5.15;1.83;;;11.10;99.90;;;;;;5048252;28;20033;-53
2022/02/18 07:59:52;;;;;;;4.25;1.27;;;11.10;99.90;;;;;;5054298;28;20812;-54
2022/02/18 08:02:18;;;;;;;4.15;1.88;;;11.20;99.90;;;;;;5048478;28;20778;-54
2022/02/18 08:04:43;;;;;;;6.07;2.03;;;11.10;99.90;;;;;;5047843;28;20017;-54
2022/02/18 08:07:10;;;;;;;5.97;1.70;;;11.20;99.90;;;;;;5045473;28;20037;-55
2022/02/18 08:09:36;;;;;;;5.53;1.73;;;11.30;99.90;;;;;;5045486;28;20037;-55
2022/02/18 08:12:02;;;;;;;3.08;1.48;;;11.30;99.90;;;;;;5046798;28;20039;-54
2022/02/18 08:14:28;;;;;;;2.15;1.50;;;11.30;99.90;;;;;;5049269;28;20043;-54
2022/02/18 08:16:53;;;;;;;3.53;1.13;;;11.30;99.90;;;;;;5051755;28;20534;-54
2022/02/18 08:19:20;;;;;;;4.57;1.42;;;11.30;99.90;;;;;;5045716;28;20037;-56
2022/02/18 08:21:50;;;;;;;2.22;1.25;;;11.70;99.90;;;;;;5042345;28;20028;-55
2022/02/18 08:24:18;;;;;;;3.85;1.45;;;11.90;99.90;;;;;;5038278;28;20704;-56
2022/02/18 08:26:48;;;;;;;0.88;0.80;;;11.90;99.90;;;;;;5049160;28;20032;-55
2022/02/18 08:29:18;;;;;;;1.73;1.08;;;11.90;99.90;;;;;;5048701;28;20029;-55
2022/02/18 08:31:44;;;;;;;0.98;0.80;;;11.80;99.90;;;;;;5046329;28;20028;-56
2022/02/18 08:34:10;;;;;;;2.30;0.90;;;11.90;99.90;;;;;;5049494;28;20494;-56
2022/02/18 08:36:36;;;;;;;3.67;0.80;;;11.90;99.90;;;;;;5041298;28;20068;-56
2022/02/18 08:39:03;;;;;;;2.22;0.88;;;12.00;99.90;;;;;;5038741;28;20029;-56
2022/02/18 08:41:30;;;;;;;1.80;0.50;;;12.30;99.90;;;;;;5048091;28;20025;-56
2022/02/18 08:43:58;;;;;;;3.25;1.27;;;12.30;99.90;;;;;;5039580;28;20071;-57
2022/02/18 08:46:27;;;;;;;0.82;0.52;;;12.40;99.90;;;;;;5040947;28;20112;-56
2022/02/18 08:48:53;;;;;;;2.42;1.00;;;12.50;99.90;;;;;;5043794;28;20038;-56
2022/02/18 08:51:19;;;;;;;1.75;0.50;;;12.40;99.90;;;;;;5044155;28;20033;-56
2022/02/18 08:53:45;;;;;;;1.30;0.50;;;12.50;99.90;;;;;;5042513;28;20028;-57
2022/02/18 08:56:11;;;;;;;2.13;0.70;;;12.50;99.90;;;;;;5055428;28;20044;-56
2022/02/18 08:58:38;;;;;;;1.75;0.80;;;12.40;99.90;;;;;;5043149;28;20021;-57
2022/02/18 09:01:03;;;;;;;1.13;0.40;;;12.40;99.90;;;;;;5036993;28;20037;-56
2022/02/18 09:03:30;;;;;;;1.10;0.73;;;12.60;99.90;;;;;;5043845;28;20457;-56
2022/02/18 09:05:56;;;;;;;0.75;0.63;;;12.50;99.90;;;;;;5049836;28;20078;-56
2022/02/18 09:08:24;;;;;;;0.77;0.40;;;12.30;99.90;;;;;;5050265;28;20449;-55
2022/02/18 09:10:51;;;;;;;1.48;0.38;;;12.30;99.90;;;;;;5046623;28;20084;-57
2022/02/18 09:13:19;;;;;;;0.63;0.47;;;12.50;99.90;;;;;;5046771;28;20020;-56
2022/02/18 09:15:46;;;;;;;1.38;0.50;;;12.40;99.90;;;;;;5039961;28;20383;-54
2022/02/18 09:18:11;;;;;;;0.88;0.40;;;12.30;99.90;;;;;;5047072;28;20025;-55
2022/02/18 09:20:37;;;;;;;2.05;0.57;;;12.40;99.90;;;;;;5041007;28;20075;-55
2022/02/18 09:23:03;;;;;;;1.13;0.70;;;12.30;99.90;;;;;;5042705;28;20631;-55
2022/02/18 09:25:29;;;;;;;0.63;0.50;;;12.30;99.90;;;;;;5043335;28;20159;-55
2022/02/18 09:27:55;;;;;;;3.08;0.43;;;12.30;99.90;;;;;;5042619;28;20040;-56
2022/02/18 09:30:21;;;;;;;3.13;0.55;;;12.40;99.90;;;;;;5042104;28;20045;-56
2022/02/18 09:32:46;;;;;;;1.55;0.70;;;12.40;99.90;;;;;;5043361;28;20043;-56
2022/02/18 09:35:12;;;;;;;2.03;0.38;;;12.40;99.90;;;;;;5048430;28;20094;-51
2022/02/18 09:37:39;;;;;;;1.27;0.50;;;12.30;99.90;;;;;;5037875;28;20028;-58
2022/02/18 09:40:09;;;;;;;1.90;0.40;;;12.30;99.90;;;;;;5041275;28;20057;-57
2022/02/18 09:42:40;;;;;;;0.93;0.50;;;12.30;99.90;;;;;;5038215;28;20108;-57
2022/02/18 09:45:07;;;;;;;0.83;0.50;;;12.20;99.90;;;;;;5042781;28;20043;-58
2022/02/18 09:47:34;;;;;;;0.50;0.47;;;12.30;99.90;;;;;;5046074;28;20564;-57
2022/02/18 09:50:01;;;;;;;0.60;0.38;;;12.20;99.90;;;;;;5043929;28;20029;-56
2022/02/18 09:52:27;;;;;;;1.13;0.52;;;12.20;99.90;;;;;;5044379;28;20086;-57
2022/02/18 09:54:53;;;;;;;1.08;0.50;;;12.40;99.90;;;;;;5042525;28;20028;-52
2022/02/18 09:57:20;;;;;;;1.67;0.50;;;12.50;99.90;;;;;;5045808;28;20348;-61
2022/02/18 09:59:46;;;;;;;0.85;0.50;;;12.50;99.90;;;;;;5047734;28;20080;-57
2022/02/18 10:02:14;;;;;;;2.25;0.60;;;12.50;99.90;;;;;;5049885;28;20025;-57
2022/02/18 10:04:39;;;;;;;3.10;0.47;;;12.50;99.90;;;;;;5041163;28;20032;-57
2022/02/18 10:07:06;;;;;;;1.27;0.32;;;12.60;99.90;;;;;;5043966;28;20151;-56
2022/02/18 10:09:40;;;;;;;2.10;0.60;;;12.70;99.90;;;;;;5048485;28;20049;-55
2022/02/18 10:12:08;;;;;;;1.38;0.57;;;12.60;99.90;;;;;;5044148;28;20025;-54
2022/02/18 10:14:53;;;;;;;0.50;0.30;;;12.50;99.90;;;;;;5051455;28;20044;-55
2022/02/18 10:17:20;;;;;;;1.33;0.30;;;12.50;99.90;;;;;;5052266;28;20083;-55
2022/02/18 10:19:54;;;;;;;0.25;0.25;;;12.70;99.90;;;;;;5047340;28;20021;-56
2022/02/18 10:22:27;;;;;;;2.28;0.40;;;12.70;99.90;;;;;;5048490;28;20440;-56
2022/02/18 10:24:54;;;;;;;0.80;0.30;;;12.80;99.90;;;;;;5052812;28;20024;-56
2022/02/18 10:27:42;;;;;;;1.27;0.30;;;12.80;99.90;;;;;;5045060;28;20104;-54
2022/02/18 10:30:07;;;;;;;1.17;0.30;;;12.70;99.90;;;;;;5041722;28;20171;-56
2022/02/18 10:32:40;;;;;;;3.05;0.28;;;12.70;99.90;;;;;;5045349;28;20108;-56
2022/02/18 10:35:06;;;;;;;2.47;0.50;;;12.70;99.90;;;;;;5043937;28;20029;-58
2022/02/18 10:37:34;;;;;;;1.40;0.30;;;12.70;99.90;;;;;;5044083;28;20048;-61
2022/02/18 10:40:10;;;;;;;0.38;0.30;;;12.70;99.90;;;;;;5042726;28;20032;-59
2022/02/18 10:42:37;;;;;;;0.85;0.50;;;12.70;99.90;;;;;;5042088;28;20466;-57
2022/02/18 10:45:11;;;;;;;0.65;0.30;;;12.70;99.90;;;;;;5045833;28;20021;-56
2022/02/18 10:47:40;;;;;;;1.17;0.40;;;12.70;99.90;;;;;;5047895;28;20041;-57
2022/02/18 10:50:26;;;;;;;1.17;0.40;;;12.70;99.90;;;;;;5043319;28;20030;-57
2022/02/18 10:53:19;;;;;;;0.63;0.30;;;12.60;99.90;;;;;;5044251;28;20036;-55
2022/02/18 10:55:53;;;;;;;2.25;0.57;;;12.50;99.90;;;;;;5038917;28;20092;-57
2022/02/18 10:58:33;;;;;;;0.52;0.30;;;12.50;99.90;;;;;;5047951;28;20378;-56
2022/02/18 11:01:03;;;;;;;0.30;0.30;;;12.50;99.90;;;;;;5051997;28;20024;-56
2022/02/18 11:03:30;;;;;;;0.45;0.25;;;12.50;99.90;;;;;;5046443;28;20292;-57
2022/02/18 11:06:08;;;;;;;1.17;0.50;;;12.50;99.90;;;;;;5052838;28;20419;-56
2022/02/18 11:08:34;;;;;;;1.55;0.47;;;12.50;99.90;;;;;;5047517;28;20075;-57
2022/02/18 11:11:11;;;;;;;0.68;0.30;;;12.40;99.90;;;;;;5047788;28;20032;-57
2022/02/18 11:13:40;;;;;;;1.05;0.40;;;12.40;99.90;;;;;;5046597;28;20032;-56
2022/02/18 11:16:09;;;;;;;2.13;0.50;;;12.30;99.90;;;;;;5043834;28;20028;-57
2022/02/18 11:18:36;;;;;;;1.27;0.73;;;12.30;99.90;;;;;;5052804;28;20088;-57
2022/02/18 11:21:02;;;;;;;0.57;0.30;;;12.30;99.90;;;;;;5045893;28;20555;-57
2022/02/18 11:23:30;;;;;;;2.05;0.50;;;12.50;99.90;;;;;;5046692;28;20033;-56
2022/02/18 11:25:57;;;;;;;0.77;0.50;;;12.60;99.90;;;;;;5045991;28;20464;-56
2022/02/18 11:28:22;;;;;;;1.20;0.30;;;12.70;99.90;;;;;;5046906;28;20029;-58
2022/02/18 11:30:50;;;;;;;1.52;0.30;;;12.60;99.90;;;;;;5044743;28;20102;-56
2022/02/18 11:33:25;;;;;;;2.75;0.40;;;12.50;99.90;;;;;;5044424;28;20028;-56
2022/02/18 11:36:02;;;;;;;2.15;0.50;;;12.30;99.90;;;;;;5035210;28;20119;-56
2022/02/18 11:38:28;;;;;;;4.57;0.45;;;12.20;99.90;;;;;;5043891;28;20051;-58
2022/02/18 11:41:23;;;;;;;1.02;0.38;;;12.30;99.90;;;;;;5043390;28;20509;-60
2022/02/18 11:43:49;;;;;;;1.23;0.43;;;12.10;99.90;;;;;;5048361;28;20116;-62
2022/02/18 11:46:25;;;;;;;2.00;0.47;;;12.10;99.90;;;;;;5046865;28;20075;-64
2022/02/18 11:48:56;;;;;;;2.03;0.55;;;12.00;99.90;;;;;;5053180;28;20075;-63
2022/02/18 11:51:25;;;;;;;0.98;0.50;;;12.00;99.90;;;;;;5049919;28;20285;-62
2022/02/18 11:53:52;;;;;;;4.40;0.73;;;11.90;99.90;;;;;;5052190;28;20091;-62
2022/02/18 11:56:46;;;;;;;6.57;1.42;;;11.80;99.90;;;;;;5046737;28;20064;-65
2022/02/18 11:59:12;;;;;;;5.13;1.13;;;11.10;99.90;;;;;;5041394;28;20167;-63
2022/02/18 12:02:09;;;;;;;4.72;1.00;;;10.40;99.90;;;;;;5049326;28;20148;-62
2022/02/18 12:04:36;;;;;;;5.00;1.10;;;10.10;99.90;;;;;;5046455;28;20469;-62
2022/02/18 12:07:22;;;;;;;6.57;1.15;;;10.10;99.90;;;;;;5045518;28;20021;-61
2022/02/18 12:09:50;;;;;;;3.97;1.10;;;10.10;99.90;;;;;;5040816;28;20016;-62
2022/02/18 12:12:29;;;;;;;7.50;1.70;;;10.10;99.90;;;;;;5044706;28;20086;-60
2022/02/18 12:15:06;;;;;;;7.40;1.35;;;10.00;99.90;;;;;;5040483;28;20013;-59
2022/02/18 12:17:32;;;;;;;9.88;1.48;;;10.00;99.90;;;;;;5042012;28;20537;-58
2022/02/18 12:20:13;;;;;;;7.78;1.30;;;10.00;99.90;;;;;;5046780;28;20025;-57
2022/02/18 12:22:39;;;;;;;11.52;1.80;;;10.00;99.90;;;;;;5047429;28;20033;-60
2022/02/18 12:25:18;;;;;;;8.82;1.58;;;9.90;99.90;;;;;;5044681;28;20112;-62
2022/02/18 12:27:44;;;;;;;13.68;2.15;;;9.80;99.90;;;;;;5046826;28;20021;-60
2022/02/18 12:30:21;;;;;;;11.18;2.63;;;9.70;99.90;;;;;;5047960;28;20044;-57
2022/02/18 12:32:52;;;;;;;13.60;2.17;;;9.70;99.90;;;;;;5040940;28;20025;-60
2022/02/18 12:35:24;;;;;;;12.10;2.33;;;9.70;99.90;;;;;;5050163;28;20070;-60
2022/02/18 12:37:50;;;;;;;13.83;2.00;;;9.70;99.90;;;;;;5039709;28;20043;-59
2022/02/18 12:40:17;;;;;;;12.38;2.15;;;9.70;99.90;;;;;;5039868;28;20021;-61
2022/02/18 12:42:44;;;;;;;8.55;1.63;;;9.70;99.90;;;;;;5060602;28;20039;-60
2022/02/18 12:45:11;;;;;;;7.93;1.75;;;9.80;99.90;;;;;;5045107;28;20024;-61